Time;durP1;ratioP1;P1;durP2;ratioP2;P2;SDS_P1;SDS_P2;PMS_P1;PMS_P2;Temp;Humidity;BMP_temperature;BMP_pressure;BME280_temperature;BME280_humidity;BME280_pressure;Samples;Min_cycle;Max_cycle;Signal;HPM_P1;HPM_P2
2023/02/19 00:01:16;;;;;;;74.70;24.80;;;10.70;99.90;;;;;;4981197;28;20182;-86
2023/02/19 00:03:46;;;;;;;73.40;22.58;;;10.70;99.90;;;;;;4999107;28;20167;-85
2023/02/19 00:06:12;;;;;;;77.97;28.98;;;10.80;99.90;;;;;;4998797;28;20225;-86
2023/02/19 00:08:38;;;;;;;74.50;24.90;;;10.70;99.90;;;;;;4980570;28;20658;-86
2023/02/19 00:11:06;;;;;;;77.85;28.17;;;10.70;99.90;;;;;;4996516;28;20790;-85
2023/02/19 00:13:36;;;;;;;76.25;27.38;;;10.70;99.90;;;;;;4998332;28;20190;-85
2023/02/19 00:16:09;;;;;;;74.07;21.58;;;10.70;99.90;;;;;;4981704;28;20626;-86
2023/02/19 00:18:35;;;;;;;75.88;21.40;;;10.80;99.90;;;;;;4998364;28;20167;-86
2023/02/19 00:21:02;;;;;;;74.05;21.10;;;10.70;99.90;;;;;;4980345;28;20173;-86
2023/02/19 00:23:28;;;;;;;72.43;16.85;;;10.70;99.90;;;;;;4997781;28;20270;-86
2023/02/19 00:25:53;;;;;;;74.30;17.00;;;10.70;99.90;;;;;;4997469;28;20217;-86
2023/02/19 00:28:20;;;;;;;80.73;22.67;;;10.70;99.90;;;;;;4998793;28;20170;-86
2023/02/19 00:30:45;;;;;;;71.38;16.90;;;10.70;99.90;;;;;;5002075;28;20443;-86
2023/02/19 00:33:12;;;;;;;73.50;23.63;;;10.70;99.90;;;;;;5002648;28;20213;-86
2023/02/19 00:35:39;;;;;;;73.13;20.25;;;10.70;99.90;;;;;;4984516;28;20194;-86
2023/02/19 00:38:14;;;;;;;72.50;20.85;;;10.70;99.90;;;;;;5001740;28;20190;-85
2023/02/19 00:40:39;;;;;;;76.90;29.33;;;10.70;99.90;;;;;;4984060;28;20213;-86
2023/02/19 00:43:08;;;;;;;74.43;23.33;;;10.60;99.90;;;;;;5001446;28;20658;-86
2023/02/19 00:45:43;;;;;;;74.47;21.33;;;10.70;99.90;;;;;;5002534;28;20185;-86
2023/02/19 00:48:08;;;;;;;74.20;21.55;;;10.70;99.90;;;;;;5001659;28;20196;-86
2023/02/19 00:50:34;;;;;;;76.83;27.27;;;10.70;99.90;;;;;;5001871;28;20241;-85
2023/02/19 00:53:00;;;;;;;73.33;22.50;;;10.70;99.90;;;;;;5001698;28;20600;-86
2023/02/19 00:55:26;;;;;;;73.93;24.13;;;10.70;99.90;;;;;;5001035;28;20222;-85
2023/02/19 00:57:51;;;;;;;75.93;28.43;;;10.70;99.90;;;;;;5000265;28;20254;-85
2023/02/19 01:00:27;;;;;;;76.27;28.07;;;10.70;99.90;;;;;;4982920;28;20261;-86
2023/02/19 01:02:55;;;;;;;76.97;28.33;;;10.70;99.90;;;;;;5001337;28;20601;-85
2023/02/19 01:05:23;;;;;;;77.05;30.08;;;10.70;99.90;;;;;;5001100;28;20171;-86
2023/02/19 01:07:49;;;;;;;77.47;32.42;;;10.60;99.90;;;;;;5001390;28;20170;-86
2023/02/19 01:10:24;;;;;;;79.47;34.17;;;10.60;99.90;;;;;;5001014;28;20164;-86
2023/02/19 01:12:50;;;;;;;77.22;31.00;;;10.50;99.90;;;;;;4999774;28;20221;-87
2023/02/19 01:15:21;;;;;;;80.30;32.80;;;10.60;99.90;;;;;;5001152;28;20182;-86
2023/02/19 01:17:50;;;;;;;77.90;31.30;;;10.60;99.90;;;;;;5001095;28;20535;-86
2023/02/19 01:20:16;;;;;;;77.35;31.40;;;10.60;99.90;;;;;;4983348;28;20170;-85
2023/02/19 01:22:41;;;;;;;77.90;27.07;;;10.60;99.90;;;;;;4983556;28;20191;-86
2023/02/19 01:25:07;;;;;;;73.63;21.70;;;10.60;99.90;;;;;;4983769;28;20170;-85
2023/02/19 01:27:36;;;;;;;74.17;25.47;;;10.60;99.90;;;;;;5001657;28;20406;-86
2023/02/19 01:30:02;;;;;;;74.50;21.45;;;10.60;99.90;;;;;;4999972;28;20413;-86
2023/02/19 01:32:30;;;;;;;73.17;19.83;;;10.60;99.90;;;;;;4983455;28;20300;-86
2023/02/19 01:34:59;;;;;;;72.32;15.93;;;10.60;99.90;;;;;;5001298;28;20968;-86
2023/02/19 01:37:24;;;;;;;70.50;14.45;;;10.60;99.90;;;;;;5001228;28;20170;-86
2023/02/19 01:39:50;;;;;;;73.23;14.00;;;10.60;99.90;;;;;;4998208;28;20249;-86
2023/02/19 01:42:16;;;;;;;72.27;16.77;;;10.60;99.90;;;;;;5001043;28;20421;-86
2023/02/19 01:44:45;;;;;;;71.15;14.07;;;10.60;99.90;;;;;;5002300;28;20181;-85
2023/02/19 01:47:16;;;;;;;72.60;16.60;;;10.60;99.90;;;;;;5000174;28;20198;-86
2023/02/19 01:49:55;;;;;;;75.85;14.70;;;10.60;99.90;;;;;;5001126;28;20633;-85
2023/02/19 01:52:28;;;;;;;70.22;11.60;;;10.70;99.90;;;;;;5001482;28;20190;-86
2023/02/19 01:54:57;;;;;;;71.30;11.75;;;10.70;99.90;;;;;;4999692;28;20182;-86
2023/02/19 01:57:29;;;;;;;70.13;13.57;;;10.70;99.90;;;;;;5000990;28;20657;-86
2023/02/19 02:00:01;;;;;;;69.97;11.25;;;10.70;99.90;;;;;;4983630;28;20178;-85
2023/02/19 02:02:27;;;;;;;69.40;10.75;;;10.70;99.90;;;;;;4983698;28;20201;-86
2023/02/19 02:04:55;;;;;;;70.67;9.90;;;10.70;99.90;;;;;;5000941;28;20167;-86
2023/02/19 02:10:20;;;;;;;68.75;8.40;;;10.70;99.90;;;;;;5001061;28;20166;-86
2023/02/19 02:12:46;;;;;;;70.00;11.00;;;10.70;99.90;;;;;;5000651;28;20218;-86
2023/02/19 02:15:14;;;;;;;71.20;9.95;;;10.70;99.90;;;;;;5001143;28;20213;-86
2023/02/19 02:17:59;;;;;;;69.90;9.90;;;10.70;99.90;;;;;;4984075;28;20166;-86
2023/02/19 02:20:27;;;;;;;71.75;14.10;;;10.70;99.90;;;;;;5001214;28;20158;-85
2023/02/19 02:23:02;;;;;;;71.70;11.30;;;10.70;99.90;;;;;;4999584;28;20202;-86
2023/02/19 02:25:57;;;;;;;70.00;10.20;;;10.70;99.90;;;;;;4999826;28;20165;-86
2023/02/19 02:28:45;;;;;;;68.95;8.68;;;10.70;99.90;;;;;;5000231;28;20173;-86
2023/02/19 02:31:21;;;;;;;71.22;12.40;;;10.70;99.90;;;;;;5000857;28;20198;-86
2023/02/19 02:34:01;;;;;;;69.25;9.20;;;10.70;99.90;;;;;;4983259;28;20173;-85
2023/02/19 02:36:35;;;;;;;69.63;9.27;;;10.70;99.90;;;;;;4982788;28;20192;-85
2023/02/19 02:39:04;;;;;;;70.28;8.63;;;10.70;99.90;;;;;;5000554;28;20186;-86
2023/02/19 02:41:31;;;;;;;69.88;10.05;;;10.70;99.90;;;;;;4999584;28;20190;-85
2023/02/19 02:43:57;;;;;;;72.85;11.55;;;10.70;99.90;;;;;;5000255;28;20166;-86
2023/02/19 02:46:29;;;;;;;71.70;9.60;;;10.70;99.90;;;;;;5000369;28;20533;-85
2023/02/19 02:48:55;;;;;;;74.40;10.57;;;10.70;99.90;;;;;;4982306;28;20169;-86
2023/02/19 02:51:46;;;;;;;72.25;9.85;;;10.70;99.90;;;;;;4999394;28;20186;-85
2023/02/19 02:57:08;;;;;;;73.30;16.05;;;10.60;99.90;;;;;;4999598;28;20162;-84
2023/02/19 02:59:38;;;;;;;70.72;11.68;;;10.60;99.90;;;;;;4981657;28;20171;-87
2023/02/19 03:02:17;;;;;;;74.32;12.70;;;10.60;99.90;;;;;;4982468;28;20201;-85
2023/02/19 03:07:40;;;;;;;77.80;18.55;;;10.60;99.90;;;;;;4999847;28;20188;-86
2023/02/19 03:10:09;;;;;;;76.35;18.15;;;10.50;99.90;;;;;;4999698;28;20669;-86
2023/02/19 03:21:02;;;;;;;77.25;19.10;;;10.60;99.90;;;;;;4999014;28;20158;-86
2023/02/19 03:26:19;;;;;;;80.63;19.88;;;10.50;99.90;;;;;;4999635;28;20189;-86
2023/02/19 03:31:33;;;;;;;76.22;16.63;;;10.60;99.90;;;;;;4999526;28;20316;-86
2023/02/19 03:34:04;;;;;;;76.05;15.73;;;10.50;99.90;;;;;;4999650;28;20173;-86
2023/02/19 03:36:38;;;;;;;77.50;17.33;;;10.50;99.90;;;;;;4998312;28;20163;-85
2023/02/19 03:39:10;;;;;;;79.85;15.32;;;10.60;99.90;;;;;;4998306;28;20261;-85
2023/02/19 03:41:54;;;;;;;79.80;15.43;;;10.60;99.90;;;;;;4998619;28;20189;-86
2023/02/19 03:44:20;;;;;;;80.72;18.02;;;10.60;99.90;;;;;;4998411;28;20175;-86
2023/02/19 03:47:03;;;;;;;81.80;21.40;;;10.60;99.90;;;;;;4999941;28;20221;-86
2023/02/19 03:49:33;;;;;;;79.63;19.10;;;10.50;99.90;;;;;;4998502;28;20201;-84
2023/02/19 03:52:02;;;;;;;82.63;25.83;;;10.50;99.90;;;;;;4999001;28;20179;-85
2023/02/19 03:54:33;;;;;;;84.40;24.15;;;10.50;99.90;;;;;;4999430;28;20236;-85
2023/02/19 03:57:05;;;;;;;84.88;19.52;;;10.50;99.90;;;;;;4999382;28;20151;-86
2023/02/19 03:59:38;;;;;;;87.78;19.30;;;10.50;99.90;;;;;;4998348;28;20274;-86
2023/02/19 04:02:31;;;;;;;86.60;17.77;;;10.50;99.90;;;;;;4997593;28;20210;-85
2023/02/19 04:05:16;;;;;;;81.45;16.55;;;10.50;99.90;;;;;;4998446;28;20205;-85
2023/02/19 04:07:47;;;;;;;83.70;17.65;;;10.50;99.90;;;;;;4999373;28;20161;-86
2023/02/19 04:10:14;;;;;;;81.93;15.63;;;10.50;99.90;;;;;;4999136;28;20226;-86
2023/02/19 04:12:44;;;;;;;84.50;16.70;;;10.50;99.90;;;;;;4999084;28;20186;-86
2023/02/19 04:15:16;;;;;;;82.30;17.10;;;10.50;99.90;;;;;;4998656;28;20586;-86
2023/02/19 04:17:53;;;;;;;79.68;17.92;;;10.50;99.90;;;;;;4999194;28;20155;-86
2023/02/19 04:20:21;;;;;;;79.22;14.48;;;10.50;99.90;;;;;;4981277;28;20164;-86
2023/02/19 04:22:47;;;;;;;83.88;16.33;;;10.50;99.90;;;;;;4981737;28;20680;-85
2023/02/19 04:25:13;;;;;;;81.55;15.73;;;10.40;99.90;;;;;;4981590;28;20209;-85
2023/02/19 04:27:44;;;;;;;81.90;15.00;;;10.40;99.90;;;;;;4981082;28;20174;-86
2023/02/19 04:30:13;;;;;;;80.70;16.80;;;10.50;99.90;;;;;;4998932;28;20173;-86
2023/02/19 04:32:41;;;;;;;79.85;15.07;;;10.40;99.90;;;;;;4981146;28;20202;-86
2023/02/19 04:35:07;;;;;;;77.78;13.52;;;10.40;99.90;;;;;;4981128;28;20195;-86
2023/02/19 04:37:32;;;;;;;81.47;15.53;;;10.40;99.90;;;;;;4999138;28;20197;-86
2023/02/19 04:39:58;;;;;;;80.13;13.87;;;10.40;99.90;;;;;;4981329;28;20420;-86
2023/02/19 04:42:23;;;;;;;80.47;16.83;;;10.40;99.90;;;;;;4998537;28;20210;-85
2023/02/19 04:44:49;;;;;;;84.20;17.20;;;10.40;99.90;;;;;;4999083;28;20166;-86
2023/02/19 04:47:18;;;;;;;82.13;16.50;;;10.40;99.90;;;;;;4998188;28;20193;-86
2023/02/19 04:49:44;;;;;;;91.55;16.48;;;10.40;99.90;;;;;;4998619;28;20704;-85
2023/02/19 04:52:10;;;;;;;75.63;12.63;;;10.40;99.90;;;;;;4998770;28;20248;-86
2023/02/19 04:54:36;;;;;;;77.93;12.27;;;10.40;99.90;;;;;;4998751;28;20273;-85
2023/02/19 04:57:02;;;;;;;76.60;14.27;;;10.40;99.90;;;;;;4998178;28;20240;-86
2023/02/19 04:59:28;;;;;;;78.83;13.13;;;10.40;99.90;;;;;;4980969;28;20174;-86
2023/02/19 05:01:53;;;;;;;75.20;14.40;;;10.30;99.90;;;;;;4980725;28;20933;-86
2023/02/19 05:04:19;;;;;;;79.13;13.07;;;10.30;99.90;;;;;;4998613;28;20173;-86
2023/02/19 05:06:45;;;;;;;80.00;12.73;;;10.30;99.90;;;;;;4998573;28;20642;-86
2023/02/19 05:09:14;;;;;;;76.13;13.67;;;10.30;99.90;;;;;;4997221;28;20417;-85
2023/02/19 05:11:39;;;;;;;75.80;12.27;;;10.30;99.90;;;;;;4997987;28;20328;-85
2023/02/19 05:14:05;;;;;;;77.40;13.70;;;10.20;99.90;;;;;;4981732;28;20233;-85
2023/02/19 05:16:32;;;;;;;77.10;13.40;;;10.30;99.90;;;;;;5000941;28;20171;-85
2023/02/19 05:18:58;;;;;;;80.88;13.02;;;10.20;99.90;;;;;;4984033;28;20170;-86
2023/02/19 05:21:23;;;;;;;80.07;13.13;;;10.20;99.90;;;;;;5001554;28;20197;-85
2023/02/19 05:23:49;;;;;;;81.13;13.50;;;10.20;99.90;;;;;;4984504;28;20642;-86
2023/02/19 05:26:18;;;;;;;79.20;14.05;;;10.20;99.90;;;;;;5001701;28;20425;-85
2023/02/19 05:28:46;;;;;;;86.00;15.43;;;10.20;99.90;;;;;;5000570;28;20512;-86
2023/02/19 05:31:12;;;;;;;80.70;14.45;;;10.20;99.90;;;;;;5094602;23;20212;-86
2023/02/19 05:33:38;;;;;;;84.72;14.98;;;10.10;99.90;;;;;;4988315;28;20187;-87
2023/02/19 05:36:09;;;;;;;82.72;16.02;;;10.20;99.90;;;;;;5000891;28;20210;-87
2023/02/19 05:38:36;;;;;;;81.38;18.90;;;10.20;99.90;;;;;;4982797;28;20166;-86
2023/02/19 05:41:07;;;;;;;85.55;23.42;;;10.10;99.90;;;;;;5000719;28;20162;-86
2023/02/19 05:43:33;;;;;;;81.30;21.65;;;10.10;99.90;;;;;;5001230;28;20654;-86
2023/02/19 05:45:58;;;;;;;84.97;17.37;;;10.10;99.90;;;;;;4985605;28;20174;-87
2023/02/19 05:48:24;;;;;;;82.87;19.50;;;10.10;99.90;;;;;;4984416;28;20542;-87
2023/02/19 05:50:50;;;;;;;81.80;18.70;;;10.10;99.90;;;;;;4987740;28;20173;-87
2023/02/19 05:53:16;;;;;;;90.30;23.23;;;10.10;99.90;;;;;;5004013;28;20189;-87
2023/02/19 05:55:41;;;;;;;86.07;19.40;;;10.10;99.90;;;;;;5003207;28;20194;-87
2023/02/19 05:58:10;;;;;;;82.90;18.63;;;10.10;99.90;;;;;;5006141;28;20420;-87
2023/02/19 06:00:36;;;;;;;86.10;18.02;;;10.10;99.90;;;;;;5007549;28;20406;-87
2023/02/19 06:03:01;;;;;;;86.77;16.20;;;10.10;99.90;;;;;;4985306;28;20280;-88
2023/02/19 06:05:27;;;;;;;83.97;17.37;;;10.10;99.90;;;;;;5001792;28;20166;-87
2023/02/19 06:07:53;;;;;;;83.23;19.97;;;10.10;99.90;;;;;;5002993;28;20167;-86
2023/02/19 06:10:18;;;;;;;81.80;20.07;;;10.10;99.90;;;;;;5001538;28;20159;-87
2023/02/19 06:12:44;;;;;;;85.47;21.27;;;10.00;99.90;;;;;;5004116;28;20186;-87
2023/02/19 06:15:10;;;;;;;86.63;19.57;;;10.00;99.90;;;;;;4988488;28;20492;-87
2023/02/19 06:17:36;;;;;;;89.70;18.03;;;10.00;99.90;;;;;;4991384;28;20194;-87
2023/02/19 06:20:02;;;;;;;83.47;17.93;;;10.00;99.90;;;;;;4990567;28;20437;-87
2023/02/19 06:22:28;;;;;;;88.68;18.40;;;10.00;99.90;;;;;;4989554;28;20183;-87
2023/02/19 06:24:54;;;;;;;88.60;18.70;;;10.00;99.90;;;;;;5006182;28;20209;-88
2023/02/19 06:27:20;;;;;;;98.43;34.70;;;9.90;99.90;;;;;;4987726;28;20405;-88
2023/02/19 06:29:45;;;;;;;83.20;18.37;;;9.90;99.90;;;;;;5006231;28;20182;-88
2023/02/19 06:32:11;;;;;;;81.53;20.07;;;9.90;99.90;;;;;;5008679;28;20536;-87
2023/02/19 06:34:37;;;;;;;79.30;17.80;;;9.90;99.90;;;;;;5008887;28;20562;-87
2023/02/19 06:37:03;;;;;;;84.53;18.40;;;9.90;99.90;;;;;;5007941;28;20171;-88
2023/02/19 06:39:28;;;;;;;80.67;16.60;;;9.90;99.90;;;;;;5013562;28;20427;-89
2023/02/19 06:41:55;;;;;;;82.20;14.33;;;10.00;99.90;;;;;;5014186;28;20195;-88
2023/02/19 06:44:21;;;;;;;82.32;14.45;;;10.00;99.90;;;;;;5013800;28;20174;-87
2023/02/19 06:46:46;;;;;;;86.20;14.20;;;10.00;99.90;;;;;;5013903;28;20230;-87
2023/02/19 06:49:12;;;;;;;79.50;16.00;;;10.00;99.90;;;;;;5012606;28;20171;-87
2023/02/19 06:51:38;;;;;;;92.23;15.97;;;10.00;99.90;;;;;;5014446;28;20194;-88
2023/02/19 06:54:03;;;;;;;83.83;16.33;;;9.90;99.90;;;;;;5013745;28;20229;-88
2023/02/19 06:56:39;;;;;;;85.40;15.50;;;10.00;99.90;;;;;;5012515;28;20173;-89
2023/02/19 06:59:11;;;;;;;82.22;14.27;;;9.90;99.90;;;;;;5012584;28;20149;-88
2023/02/19 07:01:46;;;;;;;78.50;14.40;;;9.90;99.90;;;;;;4997778;28;20190;-89
2023/02/19 07:04:19;;;;;;;83.90;14.88;;;10.00;99.90;;;;;;4994328;28;20181;-89
2023/02/19 07:06:45;;;;;;;82.18;15.82;;;9.90;99.90;;;;;;4995634;28;20158;-88
2023/02/19 07:09:11;;;;;;;88.90;13.83;;;9.90;99.90;;;;;;4995242;28;20196;-88
2023/02/19 07:11:42;;;;;;;84.47;13.70;;;9.90;99.90;;;;;;5014303;28;20445;-89
2023/02/19 07:14:14;;;;;;;78.47;13.07;;;10.00;99.90;;;;;;5015001;28;20449;-88
2023/02/19 07:16:40;;;;;;;79.38;13.48;;;10.00;99.90;;;;;;5013565;28;20166;-88
2023/02/19 07:19:06;;;;;;;82.77;16.70;;;10.00;99.90;;;;;;4995169;28;20166;-87
2023/02/19 07:21:36;;;;;;;77.23;11.73;;;9.90;99.90;;;;;;4993874;28;20429;-87
2023/02/19 07:24:03;;;;;;;79.07;12.23;;;9.90;99.90;;;;;;5007692;28;20559;-86
2023/02/19 07:26:29;;;;;;;81.78;13.60;;;9.90;99.90;;;;;;4989537;28;20167;-87
2023/02/19 07:28:54;;;;;;;79.00;14.70;;;9.90;99.90;;;;;;5006437;28;20221;-87
2023/02/19 07:31:21;;;;;;;77.93;13.10;;;9.90;99.90;;;;;;4989389;28;20436;-87
2023/02/19 07:33:48;;;;;;;82.38;13.73;;;9.90;99.90;;;;;;4989331;28;20165;-86
2023/02/19 07:36:18;;;;;;;85.75;14.40;;;9.80;99.90;;;;;;5006880;28;20175;-87
2023/02/19 07:38:44;;;;;;;77.35;13.60;;;9.90;99.90;;;;;;5008330;28;20170;-87
2023/02/19 07:41:10;;;;;;;80.85;13.15;;;9.90;99.90;;;;;;5009533;28;20297;-87
2023/02/19 07:43:37;;;;;;;79.23;13.67;;;9.90;99.90;;;;;;5009936;28;20174;-87
2023/02/19 07:46:04;;;;;;;85.28;15.52;;;10.00;99.90;;;;;;4992580;28;20803;-87
2023/02/19 07:48:43;;;;;;;76.15;14.32;;;10.00;99.90;;;;;;4992936;28;20627;-88
2023/02/19 07:51:22;;;;;;;77.72;15.07;;;10.00;99.90;;;;;;4993404;28;20193;-87
2023/02/19 07:54:03;;;;;;;82.95;17.60;;;10.00;99.90;;;;;;5011292;28;20158;-87
2023/02/19 07:56:31;;;;;;;79.25;12.43;;;10.10;99.90;;;;;;4994900;28;20182;-88
2023/02/19 07:59:07;;;;;;;76.72;11.68;;;10.10;99.90;;;;;;4995638;28;20163;-88
2023/02/19 08:04:20;;;;;;;81.38;13.70;;;10.10;99.90;;;;;;5010779;28;20636;-87
2023/02/19 08:06:48;;;;;;;78.47;12.73;;;10.00;99.90;;;;;;4993364;28;20178;-88
2023/02/19 08:09:19;;;;;;;78.20;13.18;;;10.10;99.90;;;;;;4994799;28;20163;-88
2023/02/19 08:14:44;;;;;;;79.50;12.07;;;10.00;99.90;;;;;;5011347;28;20178;-87
2023/02/19 08:17:32;;;;;;;91.60;13.30;;;10.00;99.90;;;;;;5011089;28;20196;-87
2023/02/19 08:20:27;;;;;;;79.63;12.77;;;10.10;99.90;;;;;;4993703;28;20186;-87
2023/02/19 08:23:41;;;;;;;74.28;9.77;;;10.10;99.90;;;;;;4995779;28;20190;-88
2023/02/19 08:26:41;;;;;;;75.78;12.02;;;10.20;99.90;;;;;;5012078;28;20175;-87
2023/02/19 08:33:14;;;;;;;77.03;11.80;;;10.20;99.90;;;;;;5003253;28;20249;-88
2023/02/19 08:39:35;;;;;;;75.97;12.40;;;10.30;99.90;;;;;;4975934;28;20181;-88
2023/02/19 08:42:06;;;;;;;82.22;14.13;;;10.40;99.90;;;;;;5010611;28;20190;-88
2023/02/19 08:45:37;;;;;;;80.97;13.20;;;10.40;99.90;;;;;;4992774;28;20174;-88
2023/02/19 08:47:55;;;;;;;;;;;;;;;;;;;;;
2023/02/19 08:50:24;;;;;;;80.10;13.63;;;10.50;99.90;;;;;;5011724;28;20178;-88
2023/02/19 08:52:53;;;;;;;82.47;14.18;;;10.50;99.90;;;;;;4994727;28;20190;-88
2023/02/19 08:55:21;;;;;;;78.90;13.77;;;10.50;99.90;;;;;;4991667;28;20693;-88
2023/02/19 08:57:54;;;;;;;79.70;13.75;;;10.50;99.90;;;;;;4990411;28;20261;-88
2023/02/19 09:00:21;;;;;;;84.93;13.30;;;10.60;99.90;;;;;;4991651;28;20162;-88
2023/02/19 09:02:56;;;;;;;78.45;13.60;;;10.60;99.90;;;;;;4991887;28;20253;-88
2023/02/19 09:05:33;;;;;;;77.10;12.32;;;10.60;99.90;;;;;;4992246;28;20175;-88
2023/02/19 09:08:36;;;;;;;;;;;;;;;;;;;;;
2023/02/19 09:11:35;;;;;;;79.38;14.75;;;10.70;99.90;;;;;;5012069;28;20193;-89
2023/02/19 09:14:06;;;;;;;78.70;12.52;;;10.80;99.90;;;;;;5005740;28;20147;-88
2023/02/19 09:16:52;;;;;;;78.25;12.45;;;10.70;99.90;;;;;;4991295;28;20179;-88
2023/02/19 09:19:35;;;;;;;79.43;13.57;;;10.80;99.90;;;;;;4993802;28;20230;-88
2023/02/19 09:22:30;;;;;;;87.28;15.35;;;10.80;99.90;;;;;;4994612;28;20202;-89
2023/02/19 09:28:20;;;;;;;74.47;14.13;;;10.80;99.90;;;;;;4952679;29;20212;-89
2023/02/19 09:33:14;;;;;;;75.38;12.60;;;10.80;99.90;;;;;;5028683;22;20237;-89
2023/02/19 09:35:43;;;;;;;79.00;14.57;;;10.80;99.90;;;;;;4998891;28;20191;-88
2023/02/19 09:38:18;;;;;;;78.00;12.63;;;10.90;99.90;;;;;;4996719;28;20158;-88
2023/02/19 09:41:02;;;;;;;76.70;11.80;;;10.90;99.90;;;;;;5013397;28;20154;-88
2023/02/19 09:43:54;;;;;;;89.72;11.05;;;11.00;99.90;;;;;;4969432;28;20869;-88
2023/02/19 09:50:17;;;;;;;;;;;;;;;;;;;;;
2023/02/19 09:53:25;;;;;;;75.07;14.88;;;10.90;99.90;;;;;;4992124;28;20226;-88
2023/02/19 09:56:13;;;;;;;80.13;13.50;;;10.90;99.90;;;;;;4981477;28;20195;-87
2023/02/19 09:59:09;;;;;;;74.40;13.75;;;11.00;99.90;;;;;;4991559;28;20229;-88
2023/02/19 10:02:06;;;;;;;87.97;14.68;;;11.00;99.90;;;;;;4972227;28;20299;-88
2023/02/19 10:04:51;;;;;;;77.75;13.65;;;10.90;99.90;;;;;;4935296;29;20176;-87
2023/02/19 10:07:57;;;;;;;77.53;14.25;;;11.00;99.90;;;;;;4919130;29;20185;-88
2023/02/19 10:10:49;;;;;;;81.05;13.35;;;10.90;99.90;;;;;;4912383;29;20192;-89
2023/02/19 10:13:38;;;;;;;76.40;14.35;;;11.00;99.90;;;;;;4929386;29;20169;-88
2023/02/19 10:22:20;;;;;;;77.05;12.80;;;11.10;99.90;;;;;;4899450;29;20206;-87
2023/02/19 10:25:04;;;;;;;74.30;15.63;;;11.10;99.90;;;;;;4913390;29;20188;-87
2023/02/19 10:27:38;;;;;;;76.03;13.70;;;11.10;99.90;;;;;;4922207;28;20149;-87
2023/02/19 10:30:06;;;;;;;77.35;12.48;;;11.20;99.90;;;;;;4995319;28;20239;-87
2023/02/19 10:32:32;;;;;;;73.95;10.10;;;11.20;99.90;;;;;;4978652;28;20199;-87
2023/02/19 10:35:19;;;;;;;73.30;9.57;;;11.20;99.90;;;;;;4979137;28;20219;-87
2023/02/19 10:37:58;;;;;;;70.82;10.63;;;11.10;99.90;;;;;;4996991;28;20393;-87
2023/02/19 10:40:26;;;;;;;69.60;10.88;;;11.10;99.90;;;;;;4995122;28;20159;-88
2023/02/19 10:43:30;;;;;;;78.03;13.05;;;11.10;99.90;;;;;;4996416;28;20179;-87
2023/02/19 10:46:33;;;;;;;75.30;12.07;;;11.10;99.90;;;;;;4979133;28;20257;-87
2023/02/19 10:49:25;;;;;;;77.25;13.85;;;11.00;99.90;;;;;;4966304;28;20206;-87
2023/02/19 10:51:52;;;;;;;73.57;13.20;;;11.00;99.90;;;;;;4948689;28;20567;-86
2023/02/19 10:54:27;;;;;;;73.60;14.52;;;11.00;99.90;;;;;;4975547;28;20233;-88
2023/02/19 10:57:31;;;;;;;73.70;15.38;;;11.00;99.90;;;;;;4993121;28;20170;-87
2023/02/19 11:00:42;;;;;;;72.72;15.77;;;11.00;99.90;;;;;;4992392;28;20159;-87
2023/02/19 11:03:21;;;;;;;72.00;14.23;;;11.10;99.90;;;;;;4991592;28;20195;-87
2023/02/19 11:06:05;;;;;;;74.22;16.73;;;11.20;99.90;;;;;;4993328;28;20151;-87
2023/02/19 11:08:55;;;;;;;75.28;16.15;;;11.20;99.90;;;;;;4994090;28;20158;-86
2023/02/19 11:11:43;;;;;;;73.30;15.45;;;11.40;99.90;;;;;;4992164;28;20603;-87
2023/02/19 11:14:17;;;;;;;72.57;11.40;;;11.60;99.90;;;;;;4975424;28;20568;-88
2023/02/19 11:16:55;;;;;;;72.03;7.97;;;11.90;99.90;;;;;;4975440;28;20155;-87
2023/02/19 11:19:39;;;;;;;72.20;7.25;;;11.90;99.90;;;;;;4960084;28;20199;-87
2023/02/19 11:22:24;;;;;;;69.35;7.60;;;12.00;99.90;;;;;;4975524;28;20191;-87
2023/02/19 11:25:02;;;;;;;73.00;9.25;;;12.00;99.90;;;;;;4992059;28;20171;-87
2023/02/19 11:27:27;;;;;;;70.32;7.82;;;11.80;99.90;;;;;;4974607;28;20163;-87
2023/02/19 11:30:40;;;;;;;72.20;8.70;;;11.80;99.90;;;;;;4993125;28;20179;-87
2023/02/19 11:33:15;;;;;;;70.15;7.20;;;11.70;99.90;;;;;;5028551;23;20482;-82
2023/02/19 11:35:41;;;;;;;74.05;7.13;;;11.70;99.90;;;;;;4980393;28;20562;-82
2023/02/19 11:38:12;;;;;;;72.55;7.07;;;11.70;99.90;;;;;;4980651;28;20163;-82
2023/02/19 11:40:57;;;;;;;72.68;7.68;;;11.70;99.90;;;;;;4980542;28;20156;-82
2023/02/19 11:43:47;;;;;;;71.05;6.20;;;11.70;99.90;;;;;;4960779;28;20152;-81
2023/02/19 11:46:23;;;;;;;68.38;7.22;;;11.60;99.90;;;;;;4961344;28;20235;-82
2023/02/19 11:49:11;;;;;;;70.40;7.75;;;11.50;99.90;;;;;;4960289;28;20207;-82
2023/02/19 11:51:46;;;;;;;74.57;8.05;;;11.40;99.90;;;;;;4961595;28;20219;-82
2023/02/19 11:54:41;;;;;;;67.43;6.70;;;11.30;99.90;;;;;;4976530;28;20168;-82
2023/02/19 11:57:46;;;;;;;68.32;6.80;;;11.30;99.90;;;;;;4959894;29;20164;-82
2023/02/19 12:00:28;;;;;;;71.88;7.10;;;11.30;99.90;;;;;;4961137;29;20163;-82
2023/02/19 12:03:11;;;;;;;70.32;7.40;;;11.30;99.90;;;;;;4961024;28;20583;-82
2023/02/19 12:05:56;;;;;;;68.70;6.60;;;11.30;99.90;;;;;;4961251;28;20186;-82
2023/02/19 12:08:44;;;;;;;70.75;7.38;;;11.50;99.90;;;;;;4960455;29;20234;-82
2023/02/19 12:11:33;;;;;;;69.13;7.53;;;11.50;99.90;;;;;;4960990;28;20679;-82
2023/02/19 12:14:04;;;;;;;71.40;8.32;;;11.70;99.90;;;;;;4958772;29;20160;-82
2023/02/19 12:16:39;;;;;;;70.30;8.30;;;11.80;99.90;;;;;;4959407;29;20172;-82
2023/02/19 12:19:54;;;;;;;71.60;8.38;;;11.90;99.90;;;;;;4960667;28;20163;-82
2023/02/19 12:22:30;;;;;;;73.53;8.73;;;11.90;99.90;;;;;;4893815;29;20210;-82
2023/02/19 12:25:46;;;;;;;69.30;7.25;;;12.10;99.90;;;;;;4951734;28;20183;-82
2023/02/19 12:28:40;;;;;;;68.15;6.68;;;12.20;99.90;;;;;;4906182;29;20179;-82
2023/02/19 12:31:17;;;;;;;67.05;6.78;;;12.40;99.90;;;;;;4905883;29;20204;-82
2023/02/19 12:33:58;;;;;;;72.65;7.43;;;12.60;99.90;;;;;;4954147;28;20195;-82
2023/02/19 12:36:52;;;;;;;69.15;7.10;;;12.80;99.90;;;;;;4964378;28;20159;-82
2023/02/19 12:39:38;;;;;;;72.93;7.13;;;12.90;99.90;;;;;;4964132;28;20702;-81
2023/02/19 12:42:38;;;;;;;70.82;8.20;;;12.80;99.90;;;;;;4963891;28;20271;-82
2023/02/19 12:45:30;;;;;;;71.80;8.32;;;12.80;99.90;;;;;;4965138;28;20152;-82
2023/02/19 12:48:06;;;;;;;68.95;9.13;;;12.80;99.90;;;;;;4964702;28;20167;-82
2023/02/19 12:50:36;;;;;;;71.05;9.07;;;12.80;99.90;;;;;;4963885;28;20164;-83
2023/02/19 12:53:41;;;;;;;68.80;9.27;;;12.80;99.90;;;;;;4964240;28;20194;-82
2023/02/19 12:56:16;;;;;;;72.90;9.88;;;12.80;99.90;;;;;;4933405;28;20302;-82
2023/02/19 12:59:10;;;;;;;73.45;8.88;;;12.80;99.90;;;;;;4962056;29;20192;-82
2023/02/19 13:01:59;;;;;;;70.35;7.78;;;12.70;99.90;;;;;;4961955;29;20198;-82
2023/02/19 13:05:13;;;;;;;71.97;8.55;;;12.50;99.90;;;;;;4963708;28;20191;-81
2023/02/19 13:07:59;;;;;;;75.55;9.20;;;12.20;99.90;;;;;;4910795;28;20186;-81
2023/02/19 13:10:43;;;;;;;77.55;10.13;;;12.10;99.90;;;;;;4962832;28;20190;-82
2023/02/19 13:13:19;;;;;;;74.18;8.52;;;12.00;99.90;;;;;;4962039;29;20186;-81
2023/02/19 13:15:50;;;;;;;71.10;7.60;;;11.90;99.90;;;;;;4962786;28;20178;-82
2023/02/19 13:18:24;;;;;;;70.53;7.25;;;11.70;99.90;;;;;;4963021;28;20239;-81
2023/02/19 13:20:53;;;;;;;71.10;8.20;;;11.60;99.90;;;;;;4963077;28;20162;-81
2023/02/19 13:26:30;;;;;;;72.70;10.18;;;11.50;99.90;;;;;;4963001;29;20223;-80
2023/02/19 13:29:17;;;;;;;68.78;7.15;;;11.50;99.90;;;;;;4976746;28;20164;-81
2023/02/19 13:32:04;;;;;;;69.25;7.75;;;11.30;99.90;;;;;;4962161;29;20211;-80
2023/02/19 13:35:01;;;;;;;66.53;5.60;;;11.10;99.90;;;;;;4961193;28;20188;-80
2023/02/19 13:37:32;;;;;;;67.10;7.07;;;11.10;99.90;;;;;;4961495;28;20195;-80
2023/02/19 13:40:18;;;;;;;67.65;7.38;;;10.90;99.90;;;;;;4961664;28;20627;-80
2023/02/19 13:42:53;;;;;;;67.53;8.82;;;11.10;99.90;;;;;;4962072;28;20615;-80
2023/02/19 13:45:26;;;;;;;69.13;10.00;;;11.00;99.90;;;;;;4962594;28;20612;-80
2023/02/19 13:47:57;;;;;;;68.85;10.50;;;11.00;99.90;;;;;;4962058;28;20192;-80
2023/02/19 13:50:28;;;;;;;73.03;10.60;;;11.00;99.90;;;;;;4961627;28;20168;-80
2023/02/19 13:52:56;;;;;;;73.45;10.60;;;11.00;99.90;;;;;;4961368;29;20191;-81
2023/02/19 13:55:45;;;;;;;71.53;11.00;;;11.10;99.90;;;;;;4961516;28;20196;-80
2023/02/19 13:58:36;;;;;;;69.32;10.00;;;11.10;99.90;;;;;;4976540;28;20211;-80
2023/02/19 14:01:06;;;;;;;70.45;12.63;;;11.10;99.90;;;;;;4961676;28;20307;-81
2023/02/19 14:03:46;;;;;;;69.75;12.13;;;11.10;99.90;;;;;;4961807;29;20171;-81
2023/02/19 14:06:12;;;;;;;74.25;12.73;;;11.10;99.90;;;;;;4961544;28;20563;-81